createdAt,value
2022-07-27T00:01:01.578Z,69.29
2022-07-27T00:02:07.041Z,69.35
2022-07-27T00:03:12.721Z,69.16
2022-07-27T00:04:15.671Z,68.82
2022-07-27T00:05:21.090Z,68.54
2022-07-27T00:06:27.138Z,68.37
2022-07-27T00:07:30.642Z,68.48
2022-07-27T00:08:35.021Z,68.40
2022-07-27T00:09:39.924Z,67.96
2022-07-27T00:10:44.849Z,67.81
2022-07-27T00:11:48.616Z,67.71
2022-07-27T00:12:53.628Z,68.39
2022-07-27T00:13:59.882Z,68.47
2022-07-27T00:15:06.460Z,69.15
2022-07-27T00:16:11.740Z,69.41
2022-07-27T00:17:15.754Z,69.73
2022-07-27T00:18:19.316Z,69.98
2022-07-27T00:19:25.548Z,70.16
2022-07-27T00:20:32.747Z,69.99
2022-07-27T00:21:44.590Z,70.14
2022-07-27T00:22:46.522Z,70.17
2022-07-27T00:23:50.169Z,70.05
2022-07-27T00:24:53.952Z,70.06
2022-07-27T00:25:57.506Z,69.91
2022-07-27T00:27:02.404Z,69.74
2022-07-27T00:28:06.397Z,69.86
2022-07-27T00:29:11.227Z,69.75
2022-07-27T00:30:25.381Z,69.32
2022-07-27T00:31:29.141Z,69.29
2022-07-27T00:32:32.559Z,69.17
2022-07-27T00:33:38.161Z,69.11
2022-07-27T00:34:41.735Z,68.80
2022-07-27T00:35:44.941Z,68.91
2022-07-27T00:36:48.112Z,68.78
2022-07-27T00:37:51.855Z,68.86
2022-07-27T00:38:54.592Z,68.94
2022-07-27T00:40:03.325Z,68.74
2022-07-27T00:41:12.256Z,68.70
2022-07-27T00:42:15.872Z,68.71
2022-07-27T00:43:18.803Z,69.06
2022-07-27T00:44:29.216Z,69.06
2022-07-27T00:45:37.097Z,68.94
2022-07-27T00:46:40.814Z,68.60
2022-07-27T00:47:49.596Z,68.67
2022-07-27T00:48:53.253Z,68.75
2022-07-27T00:49:58.612Z,68.60
2022-07-27T00:51:01.800Z,68.46
2022-07-27T00:52:08.000Z,68.91
2022-07-27T00:53:12.066Z,68.61
2022-07-27T00:54:17.038Z,68.61
2022-07-27T00:55:21.159Z,68.53
2022-07-27T00:56:27.285Z,68.66
2022-07-27T00:57:31.973Z,68.47
2022-07-27T00:58:38.029Z,68.92
2022-07-27T00:59:47.918Z,68.77
2022-07-27T01:00:54.419Z,68.93
2022-07-27T01:01:58.527Z,68.88
2022-07-27T01:03:08.791Z,68.78
2022-07-27T01:04:11.259Z,68.96
2022-07-27T01:05:14.879Z,68.81
2022-07-27T01:06:26.761Z,68.71
2022-07-27T01:07:27.139Z,68.64
2022-07-27T01:08:30.942Z,68.60
2022-07-27T01:09:55.390Z,68.54
2022-07-27T01:10:59.576Z,68.51
2022-07-27T01:12:07.294Z,68.80
2022-07-27T01:13:12.660Z,69.24
2022-07-27T01:14:20.485Z,68.91
2022-07-27T01:15:27.121Z,68.62
2022-07-27T01:16:30.994Z,68.36
2022-07-27T01:17:36.282Z,68.42
2022-07-27T01:18:40.653Z,68.07
2022-07-27T01:19:48.425Z,68.35
2022-07-27T01:20:52.087Z,68.22
2022-07-27T01:21:55.007Z,68.59
2022-07-27T01:22:58.427Z,68.19
2022-07-27T01:24:02.359Z,68.37
2022-07-27T01:25:05.867Z,68.53
2022-07-27T01:26:10.263Z,68.46
2022-07-27T01:27:15.022Z,68.46
2022-07-27T01:28:20.416Z,68.49
2022-07-27T01:29:23.908Z,68.14
2022-07-27T01:30:30.757Z,67.91
2022-07-27T01:31:34.879Z,67.95
2022-07-27T01:32:38.435Z,67.75
2022-07-27T01:33:42.280Z,67.79
2022-07-27T01:34:47.725Z,67.60
2022-07-27T01:35:56.517Z,67.92
2022-07-27T01:37:03.171Z,67.93
2022-07-27T01:38:10.669Z,67.93
2022-07-27T01:39:15.690Z,67.75
2022-07-27T01:40:20.997Z,67.70
2022-07-27T01:41:25.951Z,67.44
2022-07-27T01:42:31.358Z,67.79
2022-07-27T01:43:36.328Z,67.84
2022-07-27T01:44:41.418Z,67.74
2022-07-27T01:45:46.756Z,67.55
2022-07-27T01:46:55.183Z,67.68
2022-07-27T01:47:57.975Z,68.01
2022-07-27T01:49:01.734Z,68.14
2022-07-27T01:50:08.695Z,68.39
2022-07-27T01:51:15.550Z,68.75
2022-07-27T01:52:19.334Z,68.84
2022-07-27T01:53:23.831Z,68.66
2022-07-27T01:54:27.373Z,68.74
2022-07-27T01:55:41.026Z,68.81
2022-07-27T01:56:44.849Z,69.03
2022-07-27T01:57:48.436Z,69.00
2022-07-27T01:58:53.084Z,69.03
2022-07-27T01:59:56.769Z,69.10
2022-07-27T02:01:01.010Z,69.46
2022-07-27T02:02:06.417Z,69.57
2022-07-27T02:03:15.948Z,69.66
2022-07-27T02:04:20.733Z,69.27
2022-07-27T02:05:23.695Z,69.27
2022-07-27T02:06:30.301Z,69.18
2022-07-27T02:07:35.206Z,69.30
2022-07-27T02:08:38.932Z,69.03
2022-07-27T02:09:42.094Z,69.08
2022-07-27T02:11:05.202Z,69.50
2022-07-27T02:12:29.152Z,69.45
2022-07-27T02:13:33.042Z,69.35
2022-07-27T02:14:39.905Z,69.63
2022-07-27T02:17:01.643Z,69.04
2022-07-27T02:18:33.318Z,68.87
2022-07-27T02:19:15.368Z,68.55
2022-07-27T02:20:23.275Z,68.20
2022-07-27T02:21:26.613Z,67.93
2022-07-27T02:22:32.184Z,67.87
2022-07-27T02:23:36.803Z,68.17
2022-07-27T02:24:40.574Z,68.35
2022-07-27T02:25:51.493Z,68.53
2022-07-27T02:26:58.255Z,68.47
2022-07-27T02:28:05.028Z,68.71
2022-07-27T02:29:09.089Z,68.52
2022-07-27T02:30:13.190Z,68.45
2022-07-27T02:31:17.477Z,68.45
2022-07-27T02:32:25.357Z,68.35
2022-07-27T02:33:29.460Z,68.03
2022-07-27T02:34:32.253Z,67.69
2022-07-27T02:35:35.674Z,67.48
2022-07-27T02:36:41.354Z,67.48
2022-07-27T02:37:46.188Z,67.79
2022-07-27T02:38:49.683Z,67.74
2022-07-27T02:39:55.003Z,67.47
2022-07-27T02:40:59.071Z,66.86
2022-07-27T02:42:03.576Z,66.89
2022-07-27T02:43:10.374Z,67.00
2022-07-27T02:44:14.978Z,67.12
2022-07-27T02:45:18.754Z,66.60
2022-07-27T02:46:22.965Z,66.12
2022-07-27T02:47:26.465Z,66.17
2022-07-27T02:48:30.657Z,66.14
2022-07-27T02:49:33.192Z,66.08
2022-07-27T02:50:37.604Z,66.15
2022-07-27T02:51:41.494Z,66.17
2022-07-27T02:52:48.408Z,66.29
2022-07-27T02:53:51.421Z,66.01
2022-07-27T02:54:55.205Z,65.88
2022-07-27T02:56:02.284Z,66.14
2022-07-27T02:57:07.317Z,65.75
2022-07-27T02:58:12.177Z,65.62
2022-07-27T02:59:19.048Z,65.22
2022-07-27T03:00:23.725Z,65.05
2022-07-27T03:01:27.588Z,64.78
2022-07-27T03:02:30.238Z,64.47
2022-07-27T03:03:37.453Z,64.29
2022-07-27T03:04:45.162Z,63.70
2022-07-27T03:05:50.246Z,62.63
2022-07-27T03:06:55.636Z,61.77
2022-07-27T03:08:00.306Z,61.09
2022-07-27T03:09:04.771Z,60.69
2022-07-27T03:10:12.969Z,60.69
2022-07-27T03:12:30.741Z,60.16
2022-07-27T03:13:34.442Z,60.07
2022-07-27T03:14:37.982Z,60.07
2022-07-27T03:15:45.907Z,59.87
2022-07-27T03:16:50.232Z,59.72
2022-07-27T03:17:53.832Z,59.14
2022-07-27T03:19:01.500Z,58.83
2022-07-27T03:20:05.340Z,58.86
2022-07-27T03:21:10.272Z,58.98
2022-07-27T03:22:15.606Z,59.40
2022-07-27T03:23:23.319Z,59.51
2022-07-27T03:24:30.479Z,59.62
2022-07-27T03:25:35.393Z,59.68
2022-07-27T03:26:38.516Z,59.37
2022-07-27T03:27:43.967Z,59.26
2022-07-27T03:28:50.582Z,59.51
2022-07-27T03:29:54.024Z,59.70
2022-07-27T03:30:57.971Z,59.79
2022-07-27T03:32:03.200Z,59.69
2022-07-27T03:33:07.212Z,59.79
2022-07-27T03:34:11.029Z,59.98
2022-07-27T03:35:19.853Z,60.20
2022-07-27T03:36:25.060Z,60.00
2022-07-27T03:37:29.446Z,59.85
2022-07-27T03:38:36.739Z,59.69
2022-07-27T03:39:40.207Z,59.76
2022-07-27T03:40:47.097Z,59.68
2022-07-27T03:41:53.027Z,59.70
2022-07-27T03:42:57.897Z,59.99
2022-07-27T03:44:00.457Z,60.32
2022-07-27T03:45:04.910Z,60.83
2022-07-27T03:46:12.700Z,61.18
2022-07-27T03:47:17.791Z,61.22
2022-07-27T03:48:21.519Z,61.25
2022-07-27T03:49:28.170Z,61.18
2022-07-27T03:50:33.553Z,60.99
2022-07-27T03:51:39.820Z,60.72
2022-07-27T03:52:45.614Z,61.03
2022-07-27T03:53:48.668Z,60.98
2022-07-27T03:54:52.214Z,60.95
2022-07-27T03:55:56.894Z,61.29
2022-07-27T03:57:00.581Z,61.63
2022-07-27T03:58:06.023Z,61.66
2022-07-27T03:59:13.810Z,61.21
2022-07-27T04:00:19.247Z,61.88
2022-07-27T04:01:23.099Z,61.69
2022-07-27T04:02:26.105Z,61.43
2022-07-27T04:03:28.614Z,61.53
2022-07-27T04:04:35.911Z,62.05
2022-07-27T04:05:39.233Z,61.86
2022-07-27T04:06:43.143Z,61.51
2022-07-27T04:07:47.227Z,60.98
2022-07-27T04:08:54.981Z,60.68
2022-07-27T04:09:57.183Z,60.56
2022-07-27T04:11:02.059Z,61.51
2022-07-27T04:12:05.347Z,60.91
2022-07-27T04:13:10.494Z,61.16
2022-07-27T04:14:14.940Z,61.62
2022-07-27T04:16:26.347Z,60.37
2022-07-27T04:17:55.448Z,60.35
2022-07-27T04:18:38.717Z,60.21
2022-07-27T04:19:41.966Z,60.67
2022-07-27T04:20:46.798Z,59.84
2022-07-27T04:21:59.794Z,59.70
2022-07-27T04:23:05.438Z,59.51
2022-07-27T04:24:08.978Z,59.56
2022-07-27T04:25:13.597Z,59.44
2022-07-27T04:26:17.760Z,59.09
2022-07-27T04:27:22.538Z,58.88
2022-07-27T04:28:26.065Z,57.98
2022-07-27T04:29:29.702Z,54.46
2022-07-27T04:30:34.918Z,51.46
2022-07-27T04:31:39.172Z,49.69
2022-07-27T04:32:45.581Z,48.78
2022-07-27T04:33:50.673Z,47.99
2022-07-27T04:34:56.096Z,45.94
2022-07-27T04:35:59.753Z,43.37
2022-07-27T04:37:03.383Z,40.57
2022-07-27T04:38:07.350Z,37.73
2022-07-27T04:39:11.547Z,35.29
2022-07-27T04:40:20.181Z,33.08
2022-07-27T04:41:30.291Z,31.63
2022-07-27T04:42:29.618Z,30.39
2022-07-27T04:43:34.622Z,29.21
2022-07-27T04:44:39.071Z,29.06
2022-07-27T04:45:43.247Z,28.49
2022-07-27T04:46:48.113Z,28.01
2022-07-27T04:47:51.780Z,27.45
2022-07-27T04:48:54.957Z,26.95
2022-07-27T04:50:00.338Z,26.40
2022-07-27T04:51:03.813Z,25.93
2022-07-27T04:52:07.360Z,25.91
2022-07-27T04:53:10.578Z,25.47
2022-07-27T04:54:14.516Z,25.39
2022-07-27T04:55:19.180Z,25.47
2022-07-27T04:56:22.658Z,25.47
2022-07-27T04:57:31.330Z,24.80
2022-07-27T04:58:36.501Z,24.61
2022-07-27T04:59:40.050Z,24.72
2022-07-27T05:00:43.764Z,24.55
2022-07-27T05:01:47.682Z,24.36
2022-07-27T05:02:51.314Z,24.10
2022-07-27T05:03:55.388Z,23.89
2022-07-27T05:05:03.985Z,23.51
2022-07-27T05:06:08.381Z,23.03
2022-07-27T05:07:11.836Z,23.17
2022-07-27T05:08:18.219Z,22.97
2022-07-27T05:09:22.596Z,22.61
2022-07-27T05:10:30.132Z,22.81
2022-07-27T05:11:33.709Z,22.90
2022-07-27T05:12:38.000Z,22.72
2022-07-27T05:13:41.837Z,22.56
2022-07-27T05:14:46.998Z,22.42
2022-07-27T05:15:56.019Z,22.41
2022-07-27T05:16:58.787Z,21.85
2022-07-27T05:18:08.978Z,21.72
2022-07-27T05:19:12.568Z,21.76
2022-07-27T05:20:18.459Z,21.45
2022-07-27T05:21:22.277Z,21.49
2022-07-27T05:22:29.057Z,21.67
2022-07-27T05:23:32.985Z,21.84
2022-07-27T05:24:40.066Z,22.00
2022-07-27T05:25:43.475Z,22.22
2022-07-27T05:26:48.576Z,22.24
2022-07-27T05:29:05.344Z,21.74
2022-07-27T05:30:13.213Z,22.08
2022-07-27T05:31:19.256Z,22.10
2022-07-27T05:32:23.437Z,21.93
2022-07-27T05:33:27.151Z,22.01
2022-07-27T05:34:29.892Z,21.98
2022-07-27T05:35:36.725Z,21.83
2022-07-27T05:36:40.405Z,21.43
2022-07-27T05:37:45.103Z,21.98
2022-07-27T05:38:48.681Z,21.92
2022-07-27T05:39:51.732Z,21.42
2022-07-27T05:40:54.714Z,21.29
2022-07-27T05:42:03.082Z,21.61
2022-07-27T05:43:06.875Z,21.18
2022-07-27T05:44:09.784Z,20.15
2022-07-27T05:45:14.306Z,20.21
2022-07-27T05:46:29.643Z,20.62
2022-07-27T05:47:31.410Z,20.62
2022-07-27T05:48:37.042Z,20.29
2022-07-27T05:49:40.536Z,19.95
2022-07-27T05:50:45.164Z,20.33
2022-07-27T05:51:49.817Z,21.69
2022-07-27T05:52:53.215Z,22.45
2022-07-27T05:53:55.628Z,22.02
2022-07-27T05:55:02.584Z,20.98
2022-07-27T05:56:09.234Z,20.40
2022-07-27T05:57:12.935Z,20.23
2022-07-27T05:58:16.428Z,20.75
2022-07-27T05:59:23.662Z,20.68
2022-07-27T06:00:26.837Z,20.45
2022-07-27T06:01:31.262Z,19.95
2022-07-27T06:02:37.297Z,20.64
2022-07-27T06:03:47.147Z,20.21
2022-07-27T06:04:46.265Z,20.21
2022-07-27T06:05:53.824Z,19.62
2022-07-27T06:07:17.478Z,19.73
2022-07-27T06:08:21.978Z,20.03
2022-07-27T06:09:25.124Z,19.83
2022-07-27T06:10:32.136Z,19.50
2022-07-27T06:11:35.937Z,20.15
2022-07-27T06:12:41.637Z,20.61
2022-07-27T06:13:45.345Z,21.56
2022-07-27T06:14:50.961Z,21.34
2022-07-27T06:15:54.342Z,20.62
2022-07-27T06:16:56.915Z,20.58
2022-07-27T06:18:02.024Z,20.34
2022-07-27T06:19:05.576Z,21.67
2022-07-27T06:20:09.800Z,24.12
2022-07-27T06:21:14.830Z,24.12
2022-07-27T06:22:19.134Z,22.69
2022-07-27T06:23:22.018Z,21.71
2022-07-27T06:24:25.729Z,22.04
2022-07-27T06:25:35.509Z,21.53
2022-07-27T06:26:43.221Z,21.59
2022-07-27T06:27:49.037Z,20.73
2022-07-27T06:28:54.642Z,19.94
2022-07-27T06:30:00.805Z,20.16
2022-07-27T06:31:04.765Z,19.70
2022-07-27T06:32:10.605Z,19.72
2022-07-27T06:33:15.406Z,19.78
2022-07-27T06:34:19.623Z,19.23
2022-07-27T06:35:23.860Z,19.27
2022-07-27T06:36:30.745Z,19.54
2022-07-27T06:37:44.149Z,19.41
2022-07-27T06:38:48.898Z,19.85
2022-07-27T06:39:52.711Z,19.73
2022-07-27T06:40:56.013Z,20.07
2022-07-27T06:41:58.743Z,20.86
2022-07-27T06:43:05.578Z,20.23
2022-07-27T06:44:10.487Z,20.54
2022-07-27T06:45:14.261Z,20.48
2022-07-27T06:46:19.331Z,21.63
2022-07-27T06:47:28.504Z,21.19
2022-07-27T06:48:30.498Z,21.27
2022-07-27T06:49:35.573Z,21.03
2022-07-27T06:50:42.626Z,20.39
2022-07-27T06:51:47.625Z,19.42
2022-07-27T06:52:51.277Z,20.69
2022-07-27T06:55:07.215Z,18.87
2022-07-27T06:56:11.355Z,18.74
2022-07-27T06:57:17.544Z,19.59
2022-07-27T06:58:25.306Z,19.26
2022-07-27T06:59:43.374Z,20.08
2022-07-27T07:00:36.042Z,20.79
2022-07-27T07:01:39.898Z,20.88
2022-07-27T07:03:00.062Z,21.22
2022-07-27T07:04:05.059Z,19.95
2022-07-27T07:05:10.521Z,20.15
2022-07-27T07:06:16.365Z,19.93
2022-07-27T07:07:25.090Z,19.18
2022-07-27T07:08:29.012Z,19.41
2022-07-27T07:09:33.094Z,19.96
2022-07-27T07:10:37.016Z,19.20
2022-07-27T07:11:40.541Z,18.58
2022-07-27T07:12:48.539Z,18.14
2022-07-27T07:13:55.279Z,17.53
2022-07-27T07:15:02.257Z,17.49
2022-07-27T07:16:06.185Z,17.77
2022-07-27T07:17:09.686Z,17.41
2022-07-27T07:18:17.574Z,16.87
2022-07-27T07:19:22.234Z,16.80
2022-07-27T07:20:30.161Z,16.65
2022-07-27T07:21:35.374Z,18.12
2022-07-27T07:22:41.118Z,18.30
2022-07-27T07:23:44.819Z,17.87
2022-07-27T07:24:48.531Z,17.61
2022-07-27T07:25:52.283Z,16.97
2022-07-27T07:26:58.071Z,17.43
2022-07-27T07:28:02.013Z,17.72
2022-07-27T07:29:06.264Z,16.95
2022-07-27T07:30:15.724Z,17.33
2022-07-27T07:31:20.882Z,17.35
2022-07-27T07:32:25.518Z,17.02
2022-07-27T07:33:30.355Z,16.25
2022-07-27T07:34:35.153Z,16.19
2022-07-27T07:36:12.101Z,16.66
2022-07-27T07:38:01.400Z,18.32
2022-07-27T07:39:06.061Z,17.43
2022-07-27T07:41:17.017Z,16.73
2022-07-27T07:42:21.154Z,16.59
2022-07-27T07:43:27.636Z,16.58
2022-07-27T07:44:30.951Z,18.34
2022-07-27T07:45:50.433Z,18.94
2022-07-27T07:46:47.453Z,19.05
2022-07-27T07:47:53.525Z,18.92
2022-07-27T07:48:57.479Z,18.10
2022-07-27T07:50:01.682Z,18.09
2022-07-27T07:51:05.496Z,19.78
2022-07-27T07:52:10.262Z,20.67
2022-07-27T07:53:15.410Z,22.09
2022-07-27T07:54:18.906Z,22.54
2022-07-27T07:55:25.522Z,23.04
2022-07-27T07:56:29.352Z,23.11
2022-07-27T07:57:33.113Z,23.69
2022-07-27T07:58:36.660Z,23.38
2022-07-27T07:59:43.830Z,24.05
2022-07-27T08:00:47.674Z,21.67
2022-07-27T08:01:51.488Z,20.99
2022-07-27T08:02:58.238Z,20.56
2022-07-27T08:04:03.813Z,20.71
2022-07-27T08:05:10.771Z,21.53
2022-07-27T08:06:16.256Z,22.07
2022-07-27T08:07:20.105Z,22.67
2022-07-27T08:08:24.835Z,22.20
2022-07-27T08:09:29.315Z,22.33
2022-07-27T08:10:32.544Z,23.32
2022-07-27T08:11:38.404Z,23.06
2022-07-27T08:12:45.783Z,23.75
2022-07-27T08:13:49.221Z,23.86
2022-07-27T08:14:53.107Z,23.93
2022-07-27T08:15:56.234Z,22.44
2022-07-27T08:17:09.447Z,22.21
2022-07-27T08:18:13.129Z,22.46
2022-07-27T08:19:16.582Z,23.05
2022-07-27T08:20:22.222Z,24.19
2022-07-27T08:21:26.366Z,23.91
2022-07-27T08:22:32.162Z,24.23
2022-07-27T08:23:35.709Z,24.22
2022-07-27T08:24:41.404Z,24.51
2022-07-27T08:25:47.083Z,25.95
2022-07-27T08:26:52.069Z,25.05
2022-07-27T08:27:59.163Z,24.92
2022-07-27T08:29:11.310Z,24.76
2022-07-27T08:30:11.717Z,25.32
2022-07-27T08:31:18.891Z,25.88
2022-07-27T08:32:28.705Z,26.81
2022-07-27T08:33:32.638Z,26.27
2022-07-27T08:34:39.091Z,26.58
2022-07-27T08:35:43.048Z,27.10
2022-07-27T08:36:46.616Z,27.14
2022-07-27T08:37:50.720Z,26.65
2022-07-27T08:38:55.648Z,26.04
2022-07-27T08:41:10.557Z,25.58
2022-07-27T08:42:15.151Z,25.72
2022-07-27T08:43:25.867Z,26.49
2022-07-27T08:44:29.368Z,25.92
2022-07-27T08:45:34.622Z,25.64
2022-07-27T08:46:41.303Z,25.38
2022-07-27T08:47:47.998Z,25.52
2022-07-27T08:48:52.617Z,25.18
2022-07-27T08:49:56.995Z,26.04
2022-07-27T08:51:01.115Z,25.58
2022-07-27T08:52:06.028Z,26.39
2022-07-27T08:53:11.356Z,26.33
2022-07-27T08:54:16.157Z,25.94
2022-07-27T08:55:20.602Z,26.15
2022-07-27T08:56:24.999Z,25.34
2022-07-27T08:57:31.428Z,23.96
2022-07-27T08:58:33.767Z,23.56
2022-07-27T08:59:37.692Z,24.40
2022-07-27T09:00:48.927Z,23.52
2022-07-27T09:01:51.630Z,23.67
2022-07-27T09:02:57.251Z,24.00
2022-07-27T09:04:00.899Z,23.75
2022-07-27T09:05:06.041Z,23.07
2022-07-27T09:06:11.165Z,23.78
2022-07-27T09:07:36.304Z,23.55
2022-07-27T09:08:41.101Z,23.77
2022-07-27T09:09:48.284Z,23.96
2022-07-27T09:10:56.887Z,23.23
2022-07-27T09:12:11.373Z,22.89
2022-07-27T09:13:26.970Z,22.70
2022-07-27T09:14:37.097Z,23.03
2022-07-27T09:16:15.771Z,23.50
2022-07-27T09:17:45.935Z,23.68
2022-07-27T09:18:00.253Z,23.80
2022-07-27T09:19:08.786Z,23.46
2022-07-27T09:20:19.319Z,22.80
2022-07-27T09:21:25.053Z,23.21
2022-07-27T09:22:44.997Z,24.12
2022-07-27T09:23:53.757Z,24.33
2022-07-27T09:25:04.583Z,25.32
2022-07-27T09:26:31.264Z,26.14
2022-07-27T09:27:27.636Z,25.27
2022-07-27T09:28:34.774Z,25.42
2022-07-27T09:29:38.238Z,25.20
2022-07-27T09:30:43.176Z,25.01
2022-07-27T09:31:50.108Z,24.07
2022-07-27T09:33:06.981Z,24.26
2022-07-27T09:34:11.727Z,24.83
2022-07-27T09:35:17.864Z,23.15
2022-07-27T09:36:24.892Z,23.21
2022-07-27T09:37:29.410Z,24.78
2022-07-27T09:38:33.446Z,25.89
2022-07-27T09:39:39.970Z,25.74
2022-07-27T09:40:44.312Z,25.06
2022-07-27T09:42:00.387Z,25.20
2022-07-27T09:44:12.527Z,25.88
2022-07-27T09:44:32.540Z,25.43
2022-07-27T09:45:35.834Z,24.22
2022-07-27T09:46:48.533Z,24.91
2022-07-27T09:47:53.488Z,25.85
2022-07-27T09:48:57.325Z,25.33
2022-07-27T09:50:20.543Z,24.99
2022-07-27T09:52:34.624Z,25.29
2022-07-27T09:53:43.659Z,25.05
2022-07-27T09:54:47.703Z,24.67
2022-07-27T09:56:04.120Z,25.61
2022-07-27T09:57:08.101Z,26.37
2022-07-27T09:58:15.897Z,26.66
2022-07-27T09:59:20.252Z,24.74
2022-07-27T10:00:27.948Z,24.62
2022-07-27T10:01:43.921Z,23.83
2022-07-27T10:02:48.606Z,25.40
2022-07-27T10:03:58.572Z,24.54
2022-07-27T10:05:03.877Z,24.64
2022-07-27T10:06:10.015Z,24.06
2022-07-27T10:07:15.167Z,24.31
2022-07-27T10:08:19.441Z,23.86
2022-07-27T10:09:22.882Z,23.65
2022-07-27T10:10:27.464Z,23.10
2022-07-27T10:11:32.223Z,22.47
2022-07-27T10:12:34.916Z,22.08
2022-07-27T10:13:43.914Z,21.81
2022-07-27T10:14:45.356Z,21.95
2022-07-27T10:15:49.079Z,21.78
2022-07-27T10:16:55.291Z,21.86
2022-07-27T10:18:07.171Z,22.05
2022-07-27T10:19:23.140Z,22.11
2022-07-27T10:20:28.095Z,22.33
2022-07-27T10:21:34.468Z,23.11
2022-07-27T10:22:59.388Z,22.99
2022-07-27T10:24:09.950Z,23.19
2022-07-27T10:25:14.270Z,22.73
2022-07-27T10:26:24.313Z,22.64
2022-07-27T10:27:32.914Z,22.45
2022-07-27T10:29:52.135Z,22.32
2022-07-27T10:31:01.612Z,22.35
2022-07-27T10:32:08.568Z,23.05
2022-07-27T10:33:17.202Z,22.73
2022-07-27T10:34:41.496Z,22.32
2022-07-27T10:35:45.716Z,22.92
2022-07-27T10:36:56.314Z,23.37
2022-07-27T10:38:12.377Z,24.10
2022-07-27T10:39:34.268Z,24.42
2022-07-27T10:40:47.728Z,23.38
2022-07-27T10:41:51.534Z,23.31
2022-07-27T10:44:29.174Z,23.48
2022-07-27T10:47:04.794Z,23.14
2022-07-27T10:48:08.359Z,22.35
2022-07-27T10:49:20.952Z,22.47
2022-07-27T10:50:29.189Z,22.13
2022-07-27T10:51:36.319Z,22.21
2022-07-27T10:52:51.468Z,22.40
2022-07-27T10:54:11.860Z,22.54
2022-07-27T10:55:07.726Z,22.78
2022-07-27T10:56:12.483Z,23.10
2022-07-27T10:57:19.991Z,24.47
2022-07-27T10:58:30.467Z,24.36
2022-07-27T11:00:08.010Z,24.40
2022-07-27T11:00:57.676Z,25.82
2022-07-27T11:03:29.831Z,24.61
2022-07-27T11:04:35.460Z,24.62
2022-07-27T11:05:59.685Z,25.65
2022-07-27T11:07:23.003Z,24.65
2022-07-27T11:10:17.943Z,25.81
2022-07-27T11:11:25.156Z,25.66
2022-07-27T11:12:29.621Z,25.64
2022-07-27T11:13:38.928Z,25.21
2022-07-27T11:14:50.214Z,24.48
2022-07-27T11:16:15.760Z,24.52
2022-07-27T11:18:15.869Z,25.38
2022-07-27T11:19:19.753Z,25.97
2022-07-27T11:20:28.729Z,26.45
2022-07-27T11:21:38.274Z,26.09
2022-07-27T11:25:05.989Z,25.77
2022-07-27T11:26:11.130Z,27.01
2022-07-27T11:27:20.001Z,26.93
2022-07-27T11:28:31.375Z,26.60
2022-07-27T11:29:43.532Z,27.13
2022-07-27T11:30:45.524Z,27.13
2022-07-27T11:31:58.957Z,27.74
2022-07-27T11:33:03.806Z,27.22
2022-07-27T11:34:10.378Z,27.84
2022-07-27T11:35:19.536Z,29.25
2022-07-27T11:36:22.502Z,27.90
2022-07-27T11:37:26.249Z,27.60
2022-07-27T11:38:30.691Z,28.63
2022-07-27T11:39:59.938Z,28.16
2022-07-27T11:40:57.313Z,29.44
2022-07-27T11:43:08.747Z,27.39
2022-07-27T11:44:17.047Z,27.60
2022-07-27T11:45:31.016Z,27.73
2022-07-27T11:46:38.925Z,27.81
2022-07-27T11:47:44.331Z,27.83
2022-07-27T11:49:07.261Z,27.38
2022-07-27T11:50:09.181Z,28.93
2022-07-27T11:51:14.980Z,29.08
2022-07-27T11:52:19.199Z,29.97
2022-07-27T11:53:21.946Z,28.90
2022-07-27T11:54:28.025Z,28.86
2022-07-27T11:55:31.886Z,28.80
2022-07-27T11:56:38.518Z,28.58
2022-07-27T11:57:41.862Z,28.27
2022-07-27T12:00:24.761Z,28.65
2022-07-27T12:01:40.109Z,30.27
2022-07-27T12:04:22.021Z,28.84
2022-07-27T12:05:25.938Z,28.75
2022-07-27T12:06:35.857Z,29.08
2022-07-27T12:07:43.585Z,29.50
2022-07-27T12:08:48.636Z,29.40
2022-07-27T12:09:56.687Z,30.58
2022-07-27T12:11:01.285Z,30.39
2022-07-27T12:12:14.941Z,29.50
2022-07-27T12:13:21.796Z,29.35
2022-07-27T12:15:46.761Z,29.08
2022-07-27T12:16:55.343Z,29.81
2022-07-27T12:17:58.336Z,30.41
2022-07-27T12:19:01.049Z,31.17
2022-07-27T12:20:15.406Z,30.41
2022-07-27T12:21:21.528Z,30.51
2022-07-27T12:22:31.993Z,31.04
2022-07-27T12:23:35.378Z,30.51
2022-07-27T12:24:41.097Z,29.32
2022-07-27T12:25:46.459Z,29.13
2022-07-27T12:27:07.986Z,29.33
2022-07-27T12:28:16.831Z,29.13
2022-07-27T12:29:20.914Z,29.15
2022-07-27T12:30:51.878Z,29.02
2022-07-27T12:32:01.586Z,28.44
2022-07-27T12:33:10.287Z,28.75
2022-07-27T12:34:18.671Z,28.36
2022-07-27T12:35:36.220Z,28.88
2022-07-27T12:36:46.828Z,29.27
2022-07-27T12:38:03.340Z,29.17
2022-07-27T12:39:06.985Z,28.31
2022-07-27T12:40:15.349Z,28.07
2022-07-27T12:41:40.991Z,27.24
2022-07-27T12:42:50.739Z,27.18
2022-07-27T12:44:13.113Z,27.31
2022-07-27T12:45:19.494Z,27.50
2022-07-27T12:46:23.772Z,27.51
2022-07-27T12:47:46.145Z,27.93
2022-07-27T12:48:50.908Z,27.56
2022-07-27T12:50:05.896Z,27.83
2022-07-27T12:51:12.579Z,28.30
2022-07-27T12:52:15.668Z,28.52
2022-07-27T12:53:20.569Z,28.22
2022-07-27T12:54:23.792Z,27.80
2022-07-27T12:55:31.074Z,27.57
2022-07-27T12:56:36.739Z,27.66
2022-07-27T12:57:55.165Z,27.53
2022-07-27T12:59:04.472Z,27.52
2022-07-27T13:01:24.166Z,27.81
2022-07-27T13:02:27.968Z,28.04
2022-07-27T13:03:31.928Z,27.63
2022-07-27T13:04:35.618Z,27.59
2022-07-27T13:05:40.104Z,27.88
2022-07-27T13:07:00.187Z,28.44
2022-07-27T13:08:06.099Z,29.72
2022-07-27T13:09:11.880Z,30.19
2022-07-27T13:10:21.002Z,30.49
2022-07-27T13:12:47.392Z,30.28
2022-07-27T13:13:54.860Z,30.54
2022-07-27T13:15:00.036Z,30.68
2022-07-27T13:16:05.388Z,30.44
2022-07-27T13:17:10.684Z,30.88
2022-07-27T13:18:23.404Z,31.15
2022-07-27T13:19:31.060Z,30.72
2022-07-27T13:20:34.951Z,30.80
2022-07-27T13:21:38.642Z,31.03
2022-07-27T13:23:54.267Z,30.86
2022-07-27T13:24:58.436Z,31.04
2022-07-27T13:26:05.870Z,30.48
2022-07-27T13:27:12.060Z,30.60
2022-07-27T13:28:15.042Z,30.57
2022-07-27T13:29:26.108Z,30.88
2022-07-27T13:30:31.017Z,31.02
2022-07-27T13:31:36.456Z,31.52
2022-07-27T13:32:41.853Z,31.10
2022-07-27T13:35:09.044Z,31.55
2022-07-27T13:36:16.293Z,30.97
2022-07-27T13:37:21.565Z,31.00
2022-07-27T13:38:31.952Z,30.80
2022-07-27T13:39:35.904Z,30.70
2022-07-27T13:40:40.613Z,30.95
2022-07-27T13:41:43.745Z,31.20
2022-07-27T13:42:47.814Z,31.38
2022-07-27T13:43:52.244Z,31.49
2022-07-27T13:45:07.914Z,31.48
2022-07-27T13:46:02.833Z,32.33
2022-07-27T13:47:08.511Z,31.89
2022-07-27T13:48:12.138Z,31.63
2022-07-27T13:49:19.076Z,31.62
2022-07-27T13:50:23.007Z,31.69
2022-07-27T13:51:29.275Z,31.53
2022-07-27T13:52:35.918Z,31.61
2022-07-27T13:53:40.257Z,31.54
2022-07-27T13:54:44.026Z,31.52
2022-07-27T13:55:48.050Z,31.27
2022-07-27T13:56:55.263Z,31.24
2022-07-27T13:58:01.483Z,31.22
2022-07-27T13:59:06.680Z,31.19
2022-07-27T14:00:16.874Z,31.20
2022-07-27T14:01:20.953Z,31.64
2022-07-27T14:02:25.742Z,31.56
2022-07-27T14:03:29.625Z,31.52
2022-07-27T14:04:37.187Z,31.54
2022-07-27T14:05:49.139Z,31.85
2022-07-27T14:06:48.417Z,32.24
2022-07-27T14:07:52.299Z,32.07
2022-07-27T14:08:54.927Z,32.11
2022-07-27T14:10:18.142Z,32.10
2022-07-27T14:11:21.928Z,32.31
2022-07-27T14:12:30.226Z,32.44
2022-07-27T14:13:34.158Z,32.38
2022-07-27T14:14:37.974Z,32.21
2022-07-27T14:15:52.543Z,32.24
2022-07-27T14:16:51.457Z,32.52
2022-07-27T14:17:56.887Z,32.96
2022-07-27T14:18:59.724Z,33.04
2022-07-27T14:20:05.411Z,33.31
2022-07-27T14:21:10.283Z,33.00
2022-07-27T14:22:14.310Z,33.12
2022-07-27T14:23:17.867Z,33.14
2022-07-27T14:24:22.477Z,33.15
2022-07-27T14:25:27.330Z,33.15
2022-07-27T14:26:32.086Z,33.40
2022-07-27T14:27:37.740Z,33.71
2022-07-27T14:28:41.213Z,34.01
2022-07-27T14:29:45.007Z,34.14
2022-07-27T14:30:49.593Z,33.74
2022-07-27T14:31:54.560Z,33.64
2022-07-27T14:32:59.329Z,33.58
2022-07-27T14:34:02.322Z,33.94
2022-07-27T14:35:10.404Z,33.89
2022-07-27T14:36:14.639Z,34.62
2022-07-27T14:37:18.113Z,34.84
2022-07-27T14:38:26.792Z,34.37
2022-07-27T14:39:30.394Z,34.17
2022-07-27T14:40:35.894Z,34.25
2022-07-27T14:41:42.558Z,34.22
2022-07-27T14:42:44.301Z,34.35
2022-07-27T14:43:48.800Z,33.91
2022-07-27T14:44:51.974Z,33.79
2022-07-27T14:45:59.366Z,33.77